Rechercher aéroport 
image banner adimage banner adimage banner ad
image banner ad

CA55 - Mission Hospital Helistop

Situé à Mission Viejo, United States

ICAO - CA55, IATA -

Données fournies par Airmate  

Information générale

Coordonnées: N33°33'39" W117°39'58"
Élévation : 460 feet MSL.
Variation magnétique : 14° East
Voir autres Aéroports à California

Données opérationnelles

Special qualification required
Heure actuelle UTC:
Heure actuelle locale:
METAR: KSNA 292153Z 21008KT 10SM FEW055 FEW080 FEW150 FEW250 28/17 A2987 RMK AO2 SLP114 T02830167
TAF: KSNA 291733Z 2918/3018 22010KT P6SM FEW010 SCT200 FM300200 VRB05KT P6SM FEW200 TEMPO 3009/3011 BKN010 FM301100 VRB04KT 5SM BR BKN009 FM301500 VRB04KT P6SM SCT010 SCT150
Voir NOTAMs / SUP AIP / TFR affectant cet aéroport [VIEW]
Fréquences de communication: [VIEW]

Pistes:

Coordonnées de l'aéroport

Adresse: Mission Viejo United States

Vue satellite de CA55